Terminal Aerodrome Forecast
Issued by NWS Green Bay, WI

Home | Current Version | Previous Version | Graphics & Text | Print | Product List | Glossary On
Versions: 1 2 3 4 5 6 7 8 9 10 11 12 13 14 15 16 17 18 19 20 21 22 23 24 25 26 27 28 29 30 31 32 33 34 35 36 37 38 39 40 41 42
000
FTUS43 KGRB 050520
TAFGRB
TAF
KGRB 050520Z 0506/0606 16003KT 6SM HZ SCT250
      TEMPO 0509/0513 4SM BR
     FM051400 21007KT P6SM SCT040
     FM051900 19010G18KT P6SM SCT045
     FM052300 17008KT P6SM SKC=

USA.gov is the U.S. government's official web portal to all federal, state and local government web resources and services.